createdAt,value
2019-06-20T00:03:18.067Z,49.43
2019-06-20T00:08:17.873Z,50.00
2019-06-20T00:13:17.698Z,49.84
2019-06-20T00:18:17.555Z,49.88
2019-06-20T00:23:17.770Z,49.46
2019-06-20T00:28:17.635Z,49.72
2019-06-20T00:33:17.447Z,49.89
2019-06-20T00:38:17.703Z,49.44
2019-06-20T00:43:18.352Z,49.55
2019-06-20T00:48:17.762Z,49.37
2019-06-20T00:53:17.654Z,49.92
2019-06-20T00:58:17.861Z,49.99
2019-06-20T01:03:17.673Z,49.97
2019-06-20T01:08:17.530Z,49.75
2019-06-20T01:13:32.499Z,49.89
2019-06-20T01:18:17.583Z,49.79
2019-06-20T01:23:17.833Z,50.38
2019-06-20T01:28:17.646Z,50.31
2019-06-20T01:33:17.488Z,50.08
2019-06-20T01:38:17.732Z,50.39
2019-06-20T01:43:17.993Z,50.40
2019-06-20T01:48:17.821Z,50.56
2019-06-20T01:53:17.648Z,50.39
2019-06-20T01:58:17.897Z,50.22
2019-06-20T02:03:17.701Z,50.12
2019-06-20T02:08:17.548Z,50.09
2019-06-20T02:13:17.771Z,50.04
2019-06-20T02:18:18.026Z,50.12
2019-06-20T02:23:17.452Z,50.07
2019-06-20T02:28:17.723Z,49.92
2019-06-20T02:33:17.917Z,50.19
2019-06-20T02:38:17.801Z,51.24
2019-06-20T02:43:17.637Z,51.85
2019-06-20T02:48:17.802Z,51.88
2019-06-20T02:53:17.658Z,51.62
2019-06-20T02:58:17.968Z,51.19
2019-06-20T03:03:17.768Z,52.29
2019-06-20T03:08:18.012Z,51.09
2019-06-20T03:13:17.830Z,50.37
2019-06-20T03:18:17.635Z,50.11
2019-06-20T03:23:17.890Z,50.41
2019-06-20T03:28:17.750Z,50.43
2019-06-20T03:33:17.962Z,50.06
2019-06-20T03:38:17.780Z,50.16
2019-06-20T03:43:17.621Z,50.37
2019-06-20T03:48:17.880Z,50.21
2019-06-20T03:53:17.705Z,50.24
2019-06-20T03:58:17.947Z,50.40
2019-06-20T04:03:17.776Z,50.25
2019-06-20T04:08:18.036Z,50.24
2019-06-20T04:13:17.886Z,50.22
2019-06-20T04:18:17.703Z,50.05
2019-06-20T04:23:17.923Z,50.17
2019-06-20T04:28:17.749Z,49.82
2019-06-20T04:33:17.982Z,50.21
2019-06-20T04:38:17.835Z,50.39
2019-06-20T04:43:17.653Z,49.67
2019-06-20T04:48:17.895Z,49.73
2019-06-20T04:53:17.722Z,49.78
2019-06-20T04:58:17.989Z,49.84
2019-06-20T05:03:17.789Z,50.08
2019-06-20T05:08:18.093Z,50.40
2019-06-20T05:13:17.882Z,50.16
2019-06-20T05:18:17.743Z,49.96
2019-06-20T05:23:17.947Z,51.22
2019-06-20T05:28:17.818Z,50.78
2019-06-20T05:33:18.023Z,50.46
2019-06-20T05:38:17.839Z,50.87
2019-06-20T05:43:17.687Z,50.63
2019-06-20T05:48:17.928Z,50.67
2019-06-20T05:53:17.791Z,50.76
2019-06-20T05:58:18.009Z,49.95
2019-06-20T06:03:17.834Z,50.28
2019-06-20T06:08:18.077Z,49.80
2019-06-20T06:13:17.958Z,50.61
2019-06-20T06:18:17.749Z,50.03
2019-06-20T06:23:17.991Z,50.38
2019-06-20T06:28:17.815Z,50.09
2019-06-20T06:33:18.066Z,50.05
2019-06-20T06:38:21.761Z,50.16
2019-06-20T06:43:17.705Z,50.34
2019-06-20T06:48:17.970Z,50.42
2019-06-20T06:53:17.775Z,50.65
2019-06-20T06:58:18.034Z,50.02
2019-06-20T07:03:17.844Z,50.17
2019-06-20T07:08:18.119Z,50.08
2019-06-20T07:13:17.935Z,49.94
2019-06-20T07:18:17.774Z,50.41
2019-06-20T07:23:18.016Z,50.15
2019-06-20T07:28:18.673Z,49.83
2019-06-20T07:33:18.142Z,50.29
2019-06-20T07:38:17.920Z,50.14
2019-06-20T07:43:17.771Z,50.41
2019-06-20T07:48:17.992Z,50.44
2019-06-20T07:53:17.854Z,50.19
2019-06-20T07:58:18.077Z,50.39
2019-06-20T08:03:17.890Z,50.21
2019-06-20T08:08:18.171Z,48.63
2019-06-20T08:13:18.385Z,48.92
2019-06-20T08:18:17.790Z,49.32
2019-06-20T08:23:18.064Z,48.60
2019-06-20T08:28:17.890Z,49.78
2019-06-20T08:33:18.126Z,49.77
2019-06-20T08:38:17.988Z,50.76
2019-06-20T08:43:17.803Z,50.11
2019-06-20T08:48:18.048Z,50.40
2019-06-20T08:53:17.869Z,50.39
2019-06-20T08:58:18.111Z,49.83
2019-06-20T09:03:17.926Z,50.04
2019-06-20T09:08:18.218Z,49.62
2019-06-20T09:13:18.027Z,49.64
2019-06-20T09:18:17.861Z,49.66
2019-06-20T09:23:18.136Z,50.09
2019-06-20T09:28:17.897Z,50.09
2019-06-20T09:33:18.198Z,50.54
2019-06-20T09:38:18.006Z,50.69
2019-06-20T09:43:27.235Z,50.83
2019-06-20T09:48:18.087Z,50.84
2019-06-20T09:53:17.937Z,50.68
2019-06-20T09:58:18.191Z,50.40
2019-06-20T10:03:17.953Z,50.73
2019-06-20T10:08:18.243Z,49.97
2019-06-20T10:13:18.126Z,50.32
2019-06-20T10:18:17.907Z,50.00
2019-06-20T10:23:18.192Z,49.90
2019-06-20T10:28:17.961Z,49.85
2019-06-20T10:33:18.236Z,50.03
2019-06-20T10:38:18.126Z,49.71
2019-06-20T10:43:17.873Z,49.86
2019-06-20T10:48:18.333Z,49.46
2019-06-20T10:53:17.985Z,49.43
2019-06-20T10:58:18.209Z,48.24
2019-06-20T11:03:18.027Z,48.63
2019-06-20T11:08:18.265Z,48.51
2019-06-20T11:13:18.112Z,48.13
2019-06-20T11:18:17.958Z,47.88
2019-06-20T11:23:18.207Z,47.73
2019-06-20T11:28:18.029Z,47.88
2019-06-20T11:33:18.241Z,47.94
2019-06-20T11:38:18.116Z,47.27
2019-06-20T11:43:17.914Z,47.42
2019-06-20T11:48:18.176Z,47.90
2019-06-20T11:53:18.020Z,48.15
2019-06-20T11:58:18.233Z,47.70
2019-06-20T12:03:18.056Z,47.90
2019-06-20T12:08:18.321Z,47.60
2019-06-20T12:13:18.166Z,47.71
2019-06-20T12:18:17.966Z,47.91
2019-06-20T12:23:18.633Z,47.26
2019-06-20T12:28:18.034Z,46.93
2019-06-20T12:33:18.406Z,46.54
2019-06-20T12:38:18.110Z,46.85
2019-06-20T12:43:18.053Z,46.29
2019-06-20T12:48:18.196Z,46.82
2019-06-20T12:53:18.027Z,46.61
2019-06-20T12:58:18.261Z,46.02
2019-06-20T13:03:18.137Z,46.11
2019-06-20T13:08:18.399Z,46.27
2019-06-20T13:13:18.209Z,45.85
2019-06-20T13:18:18.021Z,46.32
2019-06-20T13:23:18.279Z,46.15
2019-06-20T13:28:18.063Z,46.89
2019-06-20T13:33:18.329Z,46.93
2019-06-20T13:38:18.149Z,47.00
2019-06-20T13:43:17.993Z,47.05
2019-06-20T13:48:18.211Z,47.29
2019-06-20T13:53:18.049Z,47.40
2019-06-20T13:58:18.280Z,46.94
2019-06-20T14:03:18.098Z,47.45
2019-06-20T14:08:18.443Z,47.43
2019-06-20T14:13:19.315Z,47.45
2019-06-20T14:18:18.445Z,47.40
2019-06-20T14:23:18.288Z,47.86
2019-06-20T14:28:18.102Z,47.82
2019-06-20T14:33:18.328Z,47.84
2019-06-20T14:38:18.172Z,47.47
2019-06-20T14:43:18.039Z,48.09
2019-06-20T14:48:18.249Z,48.23
2019-06-20T14:53:18.069Z,48.26
2019-06-20T14:58:18.314Z,48.42
2019-06-20T15:03:18.376Z,48.45
2019-06-20T15:08:18.513Z,48.03
2019-06-20T15:13:18.805Z,48.52
2019-06-20T15:18:18.540Z,48.11
2019-06-20T15:23:18.399Z,48.07
2019-06-20T15:28:18.154Z,48.11
2019-06-20T15:33:18.391Z,48.06
2019-06-20T15:38:18.190Z,47.81
2019-06-20T15:43:18.066Z,48.25
2019-06-20T15:48:18.301Z,48.17
2019-06-20T15:53:18.595Z,48.09
2019-06-20T15:58:18.401Z,48.24
2019-06-20T16:03:18.371Z,47.61
2019-06-20T16:08:18.735Z,48.03
2019-06-20T16:13:18.325Z,47.98
2019-06-20T16:18:18.637Z,47.63
2019-06-20T16:23:18.414Z,47.37
2019-06-20T16:28:18.602Z,47.49
2019-06-20T16:33:25.051Z,47.13
2019-06-20T16:38:18.307Z,47.17
2019-06-20T16:43:18.101Z,47.63
2019-06-20T16:48:18.347Z,48.05
2019-06-20T16:53:18.181Z,47.93
2019-06-20T16:58:18.391Z,47.66
2019-06-20T17:03:18.293Z,47.60
2019-06-20T17:08:18.565Z,48.03
2019-06-20T17:13:18.329Z,47.80
2019-06-20T17:18:18.173Z,47.84
2019-06-20T17:23:18.455Z,47.80
2019-06-20T17:28:18.241Z,48.34
2019-06-20T17:33:18.465Z,48.65
2019-06-20T17:38:18.495Z,48.95
2019-06-20T17:43:18.128Z,49.11
2019-06-20T17:48:18.363Z,49.26
2019-06-20T17:53:18.256Z,49.26
2019-06-20T17:58:18.532Z,50.52
2019-06-20T18:03:18.268Z,50.24
2019-06-20T18:08:18.516Z,50.35
2019-06-20T18:13:18.512Z,51.09
2019-06-20T18:18:18.599Z,50.55
2019-06-20T18:23:18.584Z,50.60
2019-06-20T18:28:18.278Z,50.42
2019-06-20T18:33:18.600Z,50.93
2019-06-20T18:38:18.347Z,55.87
2019-06-20T18:43:18.607Z,56.16
2019-06-20T18:48:18.458Z,57.38
2019-06-20T18:53:18.640Z,57.58
2019-06-20T18:58:18.511Z,57.06
2019-06-20T19:03:21.250Z,57.98
2019-06-20T19:08:18.556Z,57.64
2019-06-20T19:13:18.925Z,58.47
2019-06-20T19:18:18.291Z,59.17
2019-06-20T19:23:18.445Z,56.79
2019-06-20T19:28:18.371Z,57.59
2019-06-20T19:33:18.536Z,58.44
2019-06-20T19:38:18.363Z,59.21
2019-06-20T19:43:18.634Z,58.50
2019-06-20T19:48:18.478Z,59.11
2019-06-20T19:53:18.254Z,58.69
2019-06-20T19:58:18.503Z,59.69
2019-06-20T20:03:18.345Z,59.76
2019-06-20T20:08:18.554Z,60.10
2019-06-20T20:13:18.429Z,60.54
2019-06-20T20:18:18.240Z,58.61
2019-06-20T20:23:18.689Z,57.80
2019-06-20T20:28:18.331Z,58.93
2019-06-20T20:33:18.546Z,62.04
2019-06-20T20:38:18.406Z,60.00
2019-06-20T20:43:18.790Z,61.96
2019-06-20T20:48:18.473Z,61.86
2019-06-20T20:53:18.296Z,61.77
2019-06-20T20:58:18.547Z,64.17
2019-06-20T21:03:18.511Z,62.79
2019-06-20T21:08:18.631Z,60.04
2019-06-20T21:13:18.501Z,57.31
2019-06-20T21:18:18.242Z,56.46
2019-06-20T21:23:18.517Z,56.29
2019-06-20T21:28:18.371Z,55.82
2019-06-20T21:33:18.589Z,58.78
2019-06-20T21:38:18.451Z,59.99
2019-06-20T21:43:18.717Z,61.42
2019-06-20T21:48:18.483Z,61.14
2019-06-20T21:53:18.551Z,57.43
2019-06-20T21:58:18.564Z,60.21
2019-06-20T22:03:18.392Z,56.39
2019-06-20T22:08:18.695Z,54.65
2019-06-20T22:13:18.473Z,53.88
2019-06-20T22:18:18.288Z,53.47
2019-06-20T22:23:18.561Z,53.41
2019-06-20T22:28:18.419Z,53.16
2019-06-20T22:33:18.623Z,52.85
2019-06-20T22:38:18.449Z,52.65
2019-06-20T22:43:18.736Z,52.58
2019-06-20T22:48:18.507Z,52.88
2019-06-20T22:53:18.420Z,52.54
2019-06-20T22:58:18.620Z,52.28
2019-06-20T23:03:18.447Z,52.35
2019-06-20T23:13:18.496Z,51.58
2019-06-20T23:18:18.780Z,51.67
2019-06-20T23:23:18.548Z,51.57
2019-06-20T23:28:18.417Z,51.81
2019-06-20T23:33:18.655Z,51.70
2019-06-20T23:38:18.460Z,51.42
2019-06-20T23:43:18.743Z,51.37
2019-06-20T23:48:18.574Z,51.50
2019-06-20T23:53:18.816Z,51.33
2019-06-20T23:58:18.629Z,50.69
